createdAt,value
2023-04-14T00:00:37.060Z,18.40
2023-04-14T00:03:04.063Z,18.80
2023-04-14T00:05:31.581Z,20.87
2023-04-14T00:07:58.400Z,16.40
2023-04-14T00:10:25.044Z,19.50
2023-04-14T00:12:52.080Z,18.73
2023-04-14T00:15:18.861Z,16.10
2023-04-14T00:17:45.586Z,17.60
2023-04-14T00:20:12.187Z,15.63
2023-04-14T00:22:38.787Z,20.77
2023-04-14T00:25:05.441Z,18.43
2023-04-14T00:27:32.240Z,19.70
2023-04-14T00:29:58.812Z,15.47
2023-04-14T00:32:25.408Z,17.10
2023-04-14T00:34:51.967Z,15.43
2023-04-14T00:37:18.787Z,19.13
2023-04-14T00:39:45.545Z,16.70
2023-04-14T00:42:12.288Z,15.03
2023-04-14T00:44:38.914Z,19.73
2023-04-14T00:47:05.707Z,18.00
2023-04-14T00:49:32.276Z,15.83
2023-04-14T00:51:58.815Z,14.90
2023-04-14T00:54:25.494Z,16.67
2023-04-14T00:56:53.752Z,18.77
2023-04-14T00:59:20.404Z,18.57
2023-04-14T01:01:47.107Z,15.37
2023-04-14T01:04:13.668Z,15.67
2023-04-14T01:06:40.564Z,16.70
2023-04-14T01:09:07.099Z,17.27
2023-04-14T01:11:33.562Z,17.17
2023-04-14T01:14:27.266Z,21.07
2023-04-14T01:16:56.653Z,18.53
2023-04-14T01:19:59.088Z,16.80
2023-04-14T01:22:27.868Z,17.13
2023-04-14T01:24:54.315Z,19.20
2023-04-14T01:27:26.965Z,20.13
2023-04-14T01:29:53.476Z,15.17
2023-04-14T01:32:22.399Z,18.60
2023-04-14T01:34:53.400Z,16.70
2023-04-14T01:37:26.193Z,22.23
2023-04-14T01:39:53.764Z,20.90
2023-04-14T01:42:23.401Z,21.53
2023-04-14T01:44:52.402Z,21.30
2023-04-14T01:47:20.377Z,18.73
2023-04-14T01:49:48.609Z,19.00
2023-04-14T01:52:16.137Z,21.43
2023-04-14T01:54:43.494Z,19.10
2023-04-14T01:57:11.830Z,22.23
2023-04-14T01:59:40.083Z,18.23
2023-04-14T02:02:08.054Z,19.97
2023-04-14T02:04:35.653Z,23.70
2023-04-14T02:07:02.832Z,20.93
2023-04-14T02:09:30.585Z,20.60
2023-04-14T02:11:58.213Z,18.70
2023-04-14T02:14:24.861Z,20.97
2023-04-14T02:16:52.753Z,22.83
2023-04-14T02:19:20.218Z,24.10
2023-04-14T02:21:48.145Z,21.83
2023-04-14T02:24:14.834Z,22.53
2023-04-14T02:26:45.432Z,19.37
2023-04-14T02:29:13.581Z,20.80
2023-04-14T02:31:42.526Z,26.27
2023-04-14T02:34:09.602Z,22.27
2023-04-14T02:36:44.837Z,25.00
2023-04-14T02:39:17.932Z,20.53
2023-04-14T02:41:45.513Z,23.80
2023-04-14T02:44:23.467Z,19.43
2023-04-14T02:47:03.806Z,21.70
2023-04-14T02:49:33.053Z,21.67
2023-04-14T02:51:59.863Z,20.57
2023-04-14T02:54:27.360Z,23.80
2023-04-14T02:56:54.291Z,24.53
2023-04-14T02:59:21.490Z,23.00
2023-04-14T03:01:48.916Z,20.13
2023-04-14T03:04:15.836Z,22.40
2023-04-14T03:06:43.305Z,23.17
2023-04-14T03:09:10.379Z,22.37
2023-04-14T03:11:37.432Z,21.83
2023-04-14T03:14:04.270Z,24.53
2023-04-14T03:16:31.875Z,22.00
2023-04-14T03:18:59.856Z,20.10
2023-04-14T03:21:28.391Z,24.27
2023-04-14T03:23:55.972Z,24.30
2023-04-14T03:26:24.732Z,23.17
2023-04-14T03:28:53.468Z,24.23
2023-04-14T03:31:21.122Z,24.47
2023-04-14T03:33:55.583Z,26.27
2023-04-14T03:36:22.510Z,25.80
2023-04-14T03:38:50.002Z,23.10
2023-04-14T03:41:18.189Z,22.90
2023-04-14T03:43:45.654Z,27.57
2023-04-14T03:46:12.212Z,24.67
2023-04-14T03:48:42.803Z,24.43
2023-04-14T03:51:10.811Z,23.47
2023-04-14T03:53:38.554Z,22.20
2023-04-14T03:56:07.627Z,25.60
2023-04-14T03:58:35.174Z,26.67
2023-04-14T04:01:02.760Z,27.00
2023-04-14T04:03:30.128Z,21.63
2023-04-14T04:05:56.991Z,25.93
2023-04-14T04:08:24.079Z,24.17
2023-04-14T04:10:51.513Z,21.57
2023-04-14T04:13:19.503Z,29.40
2023-04-14T04:16:06.953Z,25.80
2023-04-14T04:18:47.118Z,23.70
2023-04-14T04:21:40.417Z,27.00
2023-04-14T04:24:10.425Z,31.33
2023-04-14T04:26:44.997Z,31.87
2023-04-14T04:29:19.528Z,29.10
2023-04-14T04:31:47.818Z,26.03
2023-04-14T04:34:15.562Z,28.10
2023-04-14T04:36:43.109Z,20.87
2023-04-14T04:39:10.128Z,25.63
2023-04-14T04:41:36.853Z,22.60
2023-04-14T04:44:03.389Z,19.93
2023-04-14T04:46:35.940Z,23.87
2023-04-14T04:49:03.036Z,25.60
2023-04-14T04:51:30.028Z,23.83
2023-04-14T04:53:56.562Z,19.87
2023-04-14T04:56:23.216Z,22.63
2023-04-14T04:58:49.800Z,21.73
2023-04-14T05:01:16.863Z,21.67
2023-04-14T05:03:43.554Z,25.07
2023-04-14T05:06:10.102Z,23.70
2023-04-14T05:08:36.666Z,23.23
2023-04-14T05:11:03.180Z,22.33
2023-04-14T05:13:29.795Z,22.47
2023-04-14T05:16:06.581Z,20.43
2023-04-14T05:18:34.254Z,23.20
2023-04-14T05:21:04.873Z,22.90
2023-04-14T05:23:35.334Z,25.97
2023-04-14T05:26:22.291Z,20.63
2023-04-14T05:28:49.154Z,26.00
2023-04-14T05:31:15.748Z,24.70
2023-04-14T05:33:42.335Z,28.23
2023-04-14T05:36:08.930Z,31.27
2023-04-14T05:38:41.658Z,27.83
2023-04-14T05:41:08.398Z,36.83
2023-04-14T05:43:34.966Z,25.23
2023-04-14T05:46:01.798Z,34.03
2023-04-14T05:48:30.776Z,35.83
2023-04-14T05:50:58.092Z,32.77
2023-04-14T05:53:24.908Z,28.17
2023-04-14T05:55:52.101Z,37.23
2023-04-14T05:58:19.597Z,33.97
2023-04-14T06:00:46.296Z,30.63
2023-04-14T06:03:13.055Z,37.13
2023-04-14T06:05:39.901Z,35.83
2023-04-14T06:08:06.509Z,37.17
2023-04-14T06:10:33.068Z,38.43
2023-04-14T06:12:59.740Z,37.80
2023-04-14T06:15:29.606Z,37.93
2023-04-14T06:17:56.254Z,35.97
2023-04-14T06:20:22.877Z,37.33
2023-04-14T06:22:49.397Z,38.77
2023-04-14T06:25:16.539Z,35.37
2023-04-14T06:27:43.544Z,36.83
2023-04-14T06:30:10.270Z,34.23
2023-04-14T06:32:37.068Z,30.80
2023-04-14T06:35:05.095Z,34.07
2023-04-14T06:37:32.618Z,31.27
2023-04-14T06:39:59.367Z,30.60
2023-04-14T06:42:26.487Z,25.63
2023-04-14T06:44:53.198Z,28.93
2023-04-14T06:47:20.980Z,24.47
2023-04-14T06:49:47.912Z,24.90
2023-04-14T06:52:14.482Z,27.20
2023-04-14T06:54:42.203Z,27.67
2023-04-14T06:57:08.967Z,20.93
2023-04-14T06:59:35.529Z,20.23
2023-04-14T07:02:02.358Z,17.37
2023-04-14T07:04:29.451Z,22.27
2023-04-14T07:07:03.132Z,20.87
2023-04-14T07:09:29.812Z,17.60
2023-04-14T07:11:57.526Z,17.40
2023-04-14T07:14:24.284Z,17.60
2023-04-14T07:16:51.722Z,18.57
2023-04-14T07:19:18.467Z,17.30
2023-04-14T07:21:45.712Z,17.80
2023-04-14T07:24:13.654Z,13.10
2023-04-14T07:26:42.903Z,13.97
2023-04-14T07:29:09.458Z,13.90
2023-04-14T07:31:38.208Z,15.30
2023-04-14T07:34:05.337Z,10.60
2023-04-14T07:36:32.615Z,12.63
2023-04-14T07:38:59.267Z,11.43
2023-04-14T07:41:26.784Z,9.93
2023-04-14T07:43:55.785Z,11.20
2023-04-14T07:46:22.399Z,12.70
2023-04-14T07:48:49.069Z,11.90
2023-04-14T07:51:16.086Z,12.07
2023-04-14T07:53:43.680Z,11.93
2023-04-14T07:56:11.600Z,12.50
2023-04-14T07:58:38.559Z,15.97
2023-04-14T08:01:05.670Z,10.37
2023-04-14T08:03:32.513Z,12.07
2023-04-14T08:05:59.308Z,14.27
2023-04-14T08:08:26.162Z,12.50
2023-04-14T08:10:52.807Z,10.73
2023-04-14T08:13:19.404Z,12.77
2023-04-14T08:15:46.113Z,12.60
2023-04-14T08:18:13.540Z,8.63
2023-04-14T08:20:41.258Z,8.37
2023-04-14T08:23:08.667Z,9.50
2023-04-14T08:25:35.935Z,11.57
2023-04-14T08:28:03.349Z,10.33
2023-04-14T08:30:29.977Z,9.80
2023-04-14T08:32:58.924Z,9.37
2023-04-14T08:35:37.305Z,11.50
2023-04-14T08:38:08.649Z,10.67
2023-04-14T08:40:42.397Z,8.63
2023-04-14T08:43:09.222Z,8.17
2023-04-14T08:45:36.241Z,8.03
2023-04-14T08:48:03.526Z,7.93
2023-04-14T08:50:37.125Z,9.80
2023-04-14T08:53:06.294Z,10.57
2023-04-14T08:55:33.293Z,8.07
2023-04-14T08:58:01.492Z,7.10
2023-04-14T09:00:28.052Z,9.50
2023-04-14T09:02:54.923Z,5.93
2023-04-14T09:05:21.928Z,7.97
2023-04-14T09:07:48.614Z,6.30
2023-04-14T09:10:15.412Z,6.60
2023-04-14T09:12:42.561Z,5.30
2023-04-14T09:15:09.558Z,6.17
2023-04-14T09:17:36.877Z,6.93
2023-04-14T09:20:36.160Z,5.60
2023-04-14T09:22:50.504Z,6.77
2023-04-14T09:25:17.635Z,3.93
2023-04-14T09:27:44.424Z,6.67
2023-04-14T09:30:11.379Z,3.90
2023-04-14T09:32:38.592Z,7.63
2023-04-14T09:35:06.290Z,8.50
2023-04-14T09:37:43.609Z,6.33
2023-04-14T09:40:10.462Z,7.30
2023-04-14T09:42:40.143Z,6.43
2023-04-14T09:45:07.114Z,10.60
2023-04-14T09:47:33.709Z,5.03
2023-04-14T09:50:03.329Z,6.17
2023-04-14T09:52:40.079Z,6.40
2023-04-14T09:55:10.205Z,6.53
2023-04-14T09:57:39.549Z,8.53
2023-04-14T10:00:24.728Z,6.43
2023-04-14T10:02:55.815Z,5.70
2023-04-14T10:05:26.392Z,6.00
2023-04-14T10:07:53.045Z,4.63
2023-04-14T10:10:19.811Z,4.67
2023-04-14T10:12:46.587Z,7.30
2023-04-14T10:15:14.874Z,4.93
2023-04-14T10:17:42.659Z,5.57
2023-04-14T10:20:10.334Z,5.07
2023-04-14T10:22:39.086Z,3.47
2023-04-14T10:25:08.138Z,4.47
2023-04-14T10:27:35.580Z,5.20
2023-04-14T10:30:02.396Z,7.60
2023-04-14T10:32:31.478Z,6.63
2023-04-14T10:35:05.468Z,5.57
2023-04-14T10:37:35.787Z,5.37
2023-04-14T10:40:05.600Z,5.10
2023-04-14T10:42:51.330Z,5.93
2023-04-14T10:45:18.150Z,5.43
2023-04-14T10:47:45.839Z,6.43
2023-04-14T10:50:13.763Z,4.60
2023-04-14T10:52:51.202Z,5.77
2023-04-14T10:55:21.363Z,5.70
2023-04-14T10:57:48.387Z,4.90
2023-04-14T11:00:23.066Z,4.87
2023-04-14T11:02:58.515Z,4.83
2023-04-14T11:05:26.603Z,6.47
2023-04-14T11:07:56.731Z,7.00
2023-04-14T11:10:24.625Z,6.97
2023-04-14T11:12:55.862Z,5.60
2023-04-14T11:15:23.664Z,6.50
2023-04-14T11:17:51.182Z,5.70
2023-04-14T11:20:24.350Z,3.87
2023-04-14T11:22:52.776Z,5.23
2023-04-14T11:25:23.662Z,5.90
2023-04-14T11:27:52.358Z,4.93
2023-04-14T11:30:20.512Z,7.10
2023-04-14T11:32:51.972Z,6.63
2023-04-14T11:35:23.777Z,3.90
2023-04-14T11:37:55.195Z,4.83
2023-04-14T11:40:22.807Z,5.17
2023-04-14T11:42:54.532Z,3.87
2023-04-14T11:45:21.662Z,3.17
2023-04-14T11:48:01.786Z,3.70
2023-04-14T11:50:33.641Z,3.90
2023-04-14T11:53:01.624Z,5.03
2023-04-14T11:55:28.840Z,4.77
2023-04-14T11:57:55.977Z,4.20
2023-04-14T12:00:23.080Z,5.57
2023-04-14T12:02:50.085Z,4.90
2023-04-14T12:05:22.386Z,4.83
2023-04-14T12:07:49.676Z,3.97
2023-04-14T12:10:16.785Z,4.70
2023-04-14T12:12:43.569Z,5.70
2023-04-14T12:15:11.393Z,4.87
2023-04-14T12:17:38.813Z,3.33
2023-04-14T12:20:06.057Z,2.87
2023-04-14T12:22:32.782Z,4.40
2023-04-14T12:24:59.725Z,3.37
2023-04-14T12:27:27.780Z,2.90
2023-04-14T12:29:54.728Z,4.97
2023-04-14T12:32:22.944Z,6.57
2023-04-14T12:34:58.067Z,2.43
2023-04-14T12:37:28.685Z,2.97
2023-04-14T12:40:00.278Z,3.33
2023-04-14T12:42:28.029Z,2.83
2023-04-14T12:44:59.029Z,2.40
2023-04-14T12:47:29.125Z,2.00
2023-04-14T12:49:56.986Z,2.27
2023-04-14T12:52:34.756Z,4.23
2023-04-14T12:55:03.246Z,3.43
2023-04-14T12:57:30.120Z,2.27
2023-04-14T12:59:57.935Z,2.73
2023-04-14T13:02:25.314Z,2.57
2023-04-14T13:04:52.311Z,4.20
2023-04-14T13:16:12.861Z,3.57
2023-04-14T13:18:22.343Z,3.37
2023-04-14T13:20:54.144Z,4.03
2023-04-14T13:27:22.627Z,4.43
2023-04-14T13:29:49.816Z,2.63
2023-04-14T13:32:17.665Z,5.13
2023-04-14T13:34:45.129Z,6.53
2023-04-14T13:37:11.990Z,5.23
2023-04-14T13:39:39.053Z,3.30
2023-04-14T13:42:06.090Z,4.13
2023-04-14T13:44:33.210Z,5.97
2023-04-14T13:46:59.766Z,5.17
2023-04-14T13:49:26.517Z,3.77
2023-04-14T13:51:53.053Z,4.00
2023-04-14T13:54:19.666Z,4.57
2023-04-14T13:56:46.207Z,3.30
2023-04-14T13:59:16.129Z,5.03
2023-04-14T14:01:42.961Z,6.00
2023-04-14T14:04:09.637Z,4.40
2023-04-14T14:06:36.294Z,8.90
2023-04-14T14:09:06.079Z,3.53
2023-04-14T14:11:33.167Z,2.63
2023-04-14T14:14:00.187Z,3.00
2023-04-14T14:18:57.440Z,3.03
2023-04-14T14:24:04.771Z,2.57
2023-04-14T14:26:51.109Z,3.93
2023-04-14T14:29:17.899Z,3.27
2023-04-14T14:31:44.578Z,3.70
2023-04-14T14:34:11.221Z,3.27
2023-04-14T14:36:37.790Z,3.37
2023-04-14T14:39:04.385Z,4.27
2023-04-14T14:41:31.241Z,4.07
2023-04-14T14:43:59.138Z,3.97
2023-04-14T14:46:26.573Z,4.23
2023-04-14T14:48:53.184Z,3.57
2023-04-14T14:51:19.716Z,3.97
2023-04-14T14:53:46.331Z,3.77
2023-04-14T14:56:12.997Z,3.77
2023-04-14T14:58:39.635Z,3.83
2023-04-14T15:01:07.143Z,3.77
2023-04-14T15:03:34.251Z,2.50
2023-04-14T15:06:01.039Z,2.97
2023-04-14T15:08:28.002Z,5.90
2023-04-14T15:10:54.578Z,4.83
2023-04-14T15:13:21.988Z,3.50
2023-04-14T15:15:48.656Z,6.83
2023-04-14T15:18:16.035Z,2.90
2023-04-14T15:20:43.000Z,3.83
2023-04-14T15:23:09.741Z,4.80
2023-04-14T15:25:36.376Z,4.03
2023-04-14T15:28:03.344Z,4.23
2023-04-14T15:30:29.994Z,5.03
2023-04-14T15:32:57.229Z,4.43
2023-04-14T15:35:24.336Z,6.50
2023-04-14T15:37:50.914Z,4.70
2023-04-14T15:40:17.582Z,2.90
2023-04-14T15:42:44.316Z,5.00
2023-04-14T15:45:11.674Z,2.83
2023-04-14T15:47:38.610Z,3.53
2023-04-14T15:50:09.853Z,4.60
2023-04-14T15:52:37.480Z,5.10
2023-04-14T15:55:04.271Z,7.70
2023-04-14T15:57:30.923Z,7.70
2023-04-14T15:59:57.805Z,3.50
2023-04-14T16:02:24.569Z,3.50
2023-04-14T16:04:52.924Z,3.67
2023-04-14T16:07:19.634Z,4.53
2023-04-14T16:09:46.621Z,4.83
2023-04-14T16:12:13.176Z,6.53
2023-04-14T16:14:40.332Z,5.10
2023-04-14T16:17:07.244Z,4.70
2023-04-14T16:19:34.515Z,8.53
2023-04-14T16:22:02.843Z,3.47
2023-04-14T16:24:29.368Z,4.27
2023-04-14T16:26:57.217Z,5.27
2023-04-14T16:29:23.807Z,6.07
2023-04-14T16:31:50.440Z,8.83
2023-04-14T16:34:18.337Z,4.87
2023-04-14T16:36:46.547Z,6.83
2023-04-14T16:39:13.119Z,4.83
2023-04-14T16:41:39.694Z,5.33
2023-04-14T16:44:06.717Z,3.87
2023-04-14T16:46:33.512Z,3.10
2023-04-14T16:49:00.719Z,5.07
2023-04-14T16:51:28.030Z,5.37
2023-04-14T16:53:56.021Z,4.30
2023-04-14T16:56:22.904Z,3.47
2023-04-14T16:58:49.811Z,3.57
2023-04-14T17:01:16.462Z,4.73
2023-04-14T17:03:43.511Z,4.83
2023-04-14T17:06:10.358Z,4.10
2023-04-14T17:08:36.996Z,4.83
2023-04-14T17:11:03.647Z,4.23
2023-04-14T17:13:30.216Z,7.27
2023-04-14T17:16:06.075Z,4.10
2023-04-14T17:18:35.325Z,5.53
2023-04-14T17:21:01.903Z,5.63
2023-04-14T17:23:28.682Z,3.60
2023-04-14T17:25:56.028Z,4.00
2023-04-14T17:28:22.883Z,4.37
2023-04-14T17:30:50.176Z,5.30
2023-04-14T17:33:17.550Z,4.40
2023-04-14T17:35:44.224Z,4.80
2023-04-14T17:38:10.837Z,5.47
2023-04-14T17:40:37.498Z,5.20
2023-04-14T17:43:07.681Z,4.73
2023-04-14T17:45:35.247Z,6.87
2023-04-14T17:48:02.192Z,7.03
2023-04-14T17:50:29.299Z,5.63
2023-04-14T17:52:57.410Z,5.83
2023-04-14T17:55:27.539Z,6.90
2023-04-14T17:57:55.785Z,8.07
2023-04-14T18:00:22.483Z,7.97
2023-04-14T18:02:49.693Z,6.77
2023-04-14T18:05:16.357Z,5.90
2023-04-14T18:07:42.984Z,7.60
2023-04-14T18:10:11.036Z,4.80
2023-04-14T18:12:37.629Z,6.60
2023-04-14T18:15:05.147Z,4.97
2023-04-14T18:17:32.241Z,6.37
2023-04-14T18:19:58.946Z,6.90
2023-04-14T18:22:26.056Z,5.57
2023-04-14T18:24:52.943Z,5.53
2023-04-14T18:29:49.929Z,5.37
2023-04-14T18:32:16.492Z,7.23
2023-04-14T18:34:43.569Z,7.13
2023-04-14T18:37:10.515Z,7.97
2023-04-14T18:39:37.552Z,5.77
2023-04-14T18:42:04.643Z,7.23
2023-04-14T18:44:31.193Z,5.20
2023-04-14T18:46:57.780Z,7.80
2023-04-14T18:49:24.314Z,7.77
2023-04-14T18:51:50.931Z,8.00
2023-04-14T18:54:17.758Z,7.47
2023-04-14T18:56:44.503Z,7.23
2023-04-14T18:59:11.380Z,9.13
2023-04-14T19:01:38.092Z,6.23
2023-04-14T19:04:05.994Z,10.17
2023-04-14T19:06:32.789Z,5.87
2023-04-14T19:09:00.964Z,4.70
2023-04-14T19:11:28.035Z,7.03
2023-04-14T19:13:54.657Z,7.07
2023-04-14T19:16:22.731Z,6.40
2023-04-14T19:18:49.385Z,6.77
2023-04-14T19:21:16.357Z,7.77
2023-04-14T19:23:43.257Z,6.87
2023-04-14T19:26:11.701Z,5.67
2023-04-14T19:28:42.599Z,4.47
2023-04-14T19:31:09.691Z,5.53
2023-04-14T19:33:36.331Z,4.97
2023-04-14T19:36:03.606Z,4.30
2023-04-14T19:38:30.229Z,6.00
2023-04-14T19:40:56.936Z,5.53
2023-04-14T19:43:23.512Z,6.60
2023-04-14T19:45:53.531Z,5.93
2023-04-14T19:48:23.945Z,4.73
2023-04-14T19:50:56.946Z,4.03
2023-04-14T19:53:24.421Z,4.77
2023-04-14T19:55:58.222Z,5.17
2023-04-14T19:58:26.839Z,3.90
2023-04-14T20:00:55.836Z,4.37
2023-04-14T20:03:23.458Z,5.57
2023-04-14T20:05:51.061Z,4.50
2023-04-14T20:08:17.775Z,4.10
2023-04-14T20:10:44.412Z,3.60
2023-04-14T20:13:10.916Z,4.53
2023-04-14T20:15:37.793Z,5.13
2023-04-14T20:18:04.689Z,3.73
2023-04-14T20:20:31.217Z,5.50
2023-04-14T20:22:58.785Z,5.30
2023-04-14T20:25:25.576Z,4.93
2023-04-14T20:27:52.214Z,4.00
2023-04-14T20:30:18.760Z,4.10
2023-04-14T20:32:45.563Z,3.70
2023-04-14T20:35:12.088Z,6.73
2023-04-14T20:37:38.641Z,5.87
2023-04-14T20:40:05.472Z,5.97
2023-04-14T20:42:32.001Z,4.97
2023-04-14T20:44:58.551Z,5.03
2023-04-14T20:47:25.639Z,4.00
2023-04-14T20:49:52.448Z,6.60
2023-04-14T20:52:19.549Z,6.30
2023-04-14T20:54:46.113Z,8.57
2023-04-14T20:57:12.597Z,6.47
2023-04-14T20:59:39.434Z,7.13
2023-04-14T21:02:06.138Z,7.57
2023-04-14T21:04:33.426Z,11.30
2023-04-14T21:07:00.533Z,8.13
2023-04-14T21:09:28.040Z,10.60
2023-04-14T21:12:16.114Z,8.23
2023-04-14T21:15:30.933Z,6.27
2023-04-14T21:17:27.982Z,5.47
2023-04-14T21:19:54.536Z,5.00
2023-04-14T21:22:21.230Z,6.17
2023-04-14T21:24:48.718Z,4.93
2023-04-14T21:27:16.177Z,5.90
2023-04-14T21:29:42.952Z,4.30
2023-04-14T21:32:09.975Z,5.47
2023-04-14T21:34:37.358Z,4.67
2023-04-14T21:37:04.438Z,5.40
2023-04-14T21:39:33.299Z,5.20
2023-04-14T21:42:01.479Z,6.07
2023-04-14T21:44:28.216Z,6.70
2023-04-14T21:46:55.235Z,5.27
2023-04-14T21:49:22.100Z,6.63
2023-04-14T21:51:50.034Z,5.50
2023-04-14T21:54:16.551Z,8.43
2023-04-14T21:56:43.184Z,4.77
2023-04-14T21:59:09.707Z,6.13
2023-04-14T22:01:36.482Z,9.17
2023-04-14T22:04:03.461Z,6.17
2023-04-14T22:06:30.216Z,6.10
2023-04-14T22:08:56.748Z,5.77
2023-04-14T22:11:23.343Z,6.70
2023-04-14T22:13:49.956Z,5.20
2023-04-14T22:16:16.594Z,6.70
2023-04-14T22:18:43.412Z,7.43
2023-04-14T22:21:10.584Z,5.87
2023-04-14T22:23:38.202Z,6.87
2023-04-14T22:26:04.804Z,7.23
2023-04-14T22:28:31.341Z,8.43
2023-04-14T22:30:57.946Z,6.37
2023-04-14T22:33:24.708Z,11.10
2023-04-14T22:35:51.365Z,8.70
2023-04-14T22:38:17.939Z,9.83
2023-04-14T22:40:44.568Z,8.67
2023-04-14T22:43:11.119Z,8.13
2023-04-14T22:45:38.148Z,9.37
2023-04-14T22:48:05.388Z,7.63
2023-04-14T22:50:31.944Z,9.17
2023-04-14T22:52:58.683Z,7.37
2023-04-14T22:55:25.662Z,7.77
2023-04-14T22:57:52.675Z,8.00
2023-04-14T23:00:19.365Z,8.73
2023-04-14T23:02:46.416Z,8.03
2023-04-14T23:05:13.561Z,9.13
2023-04-14T23:07:41.261Z,7.93
2023-04-14T23:10:08.289Z,10.87
2023-04-14T23:12:35.241Z,9.63
2023-04-14T23:15:02.186Z,8.93
2023-04-14T23:17:29.175Z,8.03
2023-04-14T23:19:55.965Z,7.80
2023-04-14T23:22:22.751Z,8.53
2023-04-14T23:24:50.336Z,10.70
2023-04-14T23:27:17.699Z,9.27
2023-04-14T23:29:44.218Z,9.20
2023-04-14T23:32:10.754Z,7.90
2023-04-14T23:34:37.725Z,10.90
2023-04-14T23:37:04.627Z,9.17
2023-04-14T23:39:31.310Z,10.37
2023-04-14T23:41:58.401Z,9.23
2023-04-14T23:44:25.044Z,10.67
2023-04-14T23:46:51.899Z,10.80
2023-04-14T23:49:23.319Z,10.47
2023-04-14T23:51:51.582Z,12.17
2023-04-14T23:54:18.113Z,10.27
2023-04-14T23:56:44.657Z,10.40
2023-04-14T23:59:11.935Z,11.30
